Terminal Aerodrome Forecast
Issued by NWS Tulsa, OK

Home | Current Version | Previous Version | Text Only | Print | Product List | Glossary On
Versions: 1 2 3 4 5 6 7 8 9 10 11 12 13 14 15 16 17 18
717
FTUS44 KTSA 011737
TAFFSM
TAF
KFSM 011737Z 0118/0218 30010KT P6SM FEW180
     FM020200 33005KT P6SM BKN080 PROB30 0204/0208 -RA BKN035
     FM020800 34005KT P6SM BKN035 PROB30 0208/0212 6SM -RA BKN025
     FM021200 33006KT P6SM BKN025=

USA.gov is the U.S. government's official web portal to all federal, state and local government web resources and services.